Time;durP1;ratioP1;P1;durP2;ratioP2;P2;SDS_P1;SDS_P2;PMS_P1;PMS_P2;Temp;Humidity;BMP_temperature;BMP_pressure;BME280_temperature;BME280_humidity;BME280_pressure;Samples;Min_cycle;Max_cycle;Signal;HPM_P1;HPM_P2
2021/05/12 00:00:21;;;;;;;26.70;17.70;;;;;;;12.79;100.00;100539.38;5013134;28;20592;-83
2021/05/12 00:02:46;;;;;;;33.13;19.80;;;;;;;12.80;100.00;100533.88;5027026;28;20037;-84
2021/05/12 00:05:13;;;;;;;31.25;18.15;;;;;;;12.75;100.00;100538.75;5026146;28;20379;-82
2021/05/12 00:07:38;;;;;;;31.58;17.50;;;;;;;12.74;100.00;100545.13;5027816;28;20083;-83
2021/05/12 00:10:06;;;;;;;27.75;17.83;;;;;;;12.69;100.00;100539.22;5004232;28;20030;-83
2021/05/12 00:12:33;;;;;;;29.48;18.58;;;;;;;12.68;100.00;100542.88;5024630;28;20124;-83
2021/05/12 00:14:59;;;;;;;30.38;17.95;;;;;;;12.71;100.00;100548.06;5028419;28;20060;-83
2021/05/12 00:17:27;;;;;;;41.90;19.42;;;;;;;12.77;100.00;100547.59;5020693;28;20060;-82
2021/05/12 00:19:57;;;;;;;33.63;19.48;;;;;;;12.73;100.00;100546.09;5027698;28;20037;-83
2021/05/12 00:22:34;;;;;;;28.02;19.10;;;;;;;12.62;100.00;100537.97;5031851;28;20072;-82
2021/05/12 00:25:03;;;;;;;29.70;17.85;;;;;;;12.64;100.00;100536.03;5022306;28;20065;-83
2021/05/12 00:27:28;;;;;;;35.92;19.83;;;;;;;12.70;100.00;100540.94;5026086;28;20030;-83
2021/05/12 00:29:53;;;;;;;37.50;19.13;;;;;;;12.61;100.00;100541.63;5021439;28;20099;-82
2021/05/12 00:32:19;;;;;;;35.47;20.05;;;;;;;12.60;100.00;100542.59;5021726;28;20128;-83
2021/05/12 00:34:45;;;;;;;36.90;19.45;;;;;;;12.57;100.00;100549.09;5032228;28;20041;-83
2021/05/12 00:37:10;;;;;;;32.30;20.58;;;;;;;12.56;100.00;100549.19;5022914;28;20140;-81
2021/05/12 00:39:35;;;;;;;33.72;20.35;;;;;;;12.51;100.00;100551.38;5009020;28;20040;-83
2021/05/12 00:42:01;;;;;;;32.47;19.52;;;;;;;12.48;100.00;100551.59;5039874;28;20041;-82
2021/05/12 00:44:27;;;;;;;39.83;20.90;;;;;;;12.55;100.00;100563.63;5017604;28;20022;-82
2021/05/12 00:46:52;;;;;;;35.60;20.40;;;;;;;12.52;100.00;100572.81;5014988;28;20544;-83
2021/05/12 00:49:19;;;;;;;29.73;20.83;;;;;;;12.47;100.00;100561.50;5029889;28;20033;-83
2021/05/12 00:51:45;;;;;;;33.85;21.10;;;;;;;12.48;100.00;100562.38;5036638;28;20025;-82
2021/05/12 00:54:12;;;;;;;37.28;19.52;;;;;;;12.51;100.00;100564.84;5027555;28;20043;-83
2021/05/12 00:56:40;;;;;;;34.28;20.00;;;;;;;12.44;100.00;100560.88;5019196;28;20434;-83
2021/05/12 00:59:07;;;;;;;41.78;21.60;;;;;;;12.48;100.00;100562.38;5018174;28;20038;-81
2021/05/12 01:01:33;;;;;;;33.72;20.10;;;;;;;12.42;100.00;100562.81;5025526;28;20037;-82
2021/05/12 01:03:59;;;;;;;38.22;20.35;;;;;;;12.50;100.00;100566.69;5027881;28;20124;-83
2021/05/12 01:06:31;;;;;;;44.45;21.92;;;;;;;12.41;100.00;100558.41;5017418;28;20040;-82
2021/05/12 01:08:57;;;;;;;35.15;20.10;;;;;;;12.39;100.00;100553.16;5023020;28;20720;-83
2021/05/12 01:11:23;;;;;;;34.53;20.75;;;;;;;12.39;100.00;100563.06;5022833;28;20029;-81
2021/05/12 01:13:50;;;;;;;38.38;21.58;;;;;;;12.41;100.00;100555.72;5019031;28;20026;-83
2021/05/12 01:16:17;;;;;;;40.10;20.92;;;;;;;12.48;100.00;100562.38;5008445;28;20029;-82
2021/05/12 01:18:44;;;;;;;35.53;20.45;;;;;;;12.47;100.00;100566.88;5009617;28;20037;-81
2021/05/12 01:21:10;;;;;;;36.75;20.27;;;;;;;12.35;100.00;100566.94;5018652;28;20030;-82
2021/05/12 01:23:38;;;;;;;36.30;21.38;;;;;;;12.35;100.00;100569.63;5027132;28;20029;-83
2021/05/12 01:26:09;;;;;;;35.65;20.90;;;;;;;12.36;100.00;100574.91;5021746;28;20056;-83
2021/05/12 01:28:38;;;;;;;35.97;19.83;;;;;;;12.35;100.00;100577.72;5006266;28;20029;-82
2021/05/12 01:31:15;;;;;;;31.42;18.55;;;;;;;12.35;100.00;100570.50;5027447;28;20040;-82
2021/05/12 01:33:41;;;;;;;31.90;18.40;;;;;;;12.37;100.00;100575.78;5015718;28;20494;-81
2021/05/12 01:36:07;;;;;;;29.55;17.83;;;;;;;12.36;100.00;100574.06;5007405;28;20022;-81
2021/05/12 01:38:34;;;;;;;36.70;20.50;;;;;;;12.39;100.00;100573.84;5043151;28;20043;-82
2021/05/12 01:41:01;;;;;;;34.58;17.67;;;;;;;12.39;100.00;100576.53;5020053;28;20321;-83
2021/05/12 01:43:29;;;;;;;31.85;18.90;;;;;;;12.38;100.00;100582.88;5026461;28;20075;-81
2021/05/12 01:45:54;;;;;;;43.85;19.58;;;;;;;12.40;100.00;100580.94;5024315;28;20399;-81
2021/05/12 01:48:19;;;;;;;32.65;17.33;;;;;;;12.35;100.00;100578.56;5023318;28;20034;-84
2021/05/12 01:50:45;;;;;;;27.38;16.23;;;;;;;12.35;100.00;100577.72;5008637;28;20033;-81
2021/05/12 01:53:11;;;;;;;35.00;18.88;;;;;;;12.36;100.00;100579.44;5002256;28;20180;-81
2021/05/12 01:55:37;;;;;;;30.60;18.73;;;;;;;12.37;100.00;100575.78;5006652;28;20034;-84
2021/05/12 01:58:03;;;;;;;28.40;15.18;;;;;;;12.38;100.00;100582.88;5004725;28;20127;-83
2021/05/12 02:00:35;;;;;;;29.65;16.10;;;;;;;12.39;100.00;100573.84;5018417;28;20166;-83
2021/05/12 02:03:04;;;;;;;30.00;16.52;;;;;;;12.39;100.00;100573.84;5023470;28;20033;-83
2021/05/12 02:05:30;;;;;;;30.23;16.70;;;;;;;12.39;100.00;100582.78;4999878;28;20446;-82
2021/05/12 02:07:58;;;;;;;29.40;16.38;;;;;;;12.38;100.00;100580.19;5009067;28;20457;-82
2021/05/12 02:10:24;;;;;;;27.70;16.30;;;;;;;12.39;100.00;100582.78;5023273;28;20041;-83
2021/05/12 02:12:50;;;;;;;29.90;17.05;;;;;;;12.38;100.00;100582.88;5008699;28;20041;-82
2021/05/12 02:15:17;;;;;;;25.65;16.40;;;;;;;12.38;100.00;100588.25;5006770;28;20529;-82
2021/05/12 02:17:42;;;;;;;31.10;16.55;;;;;;;12.37;100.00;100586.53;5019301;28;20045;-82
2021/05/12 02:20:10;;;;;;;32.67;16.92;;;;;;;12.38;100.00;100590.97;5010212;28;20044;-81
2021/05/12 02:22:36;;;;;;;31.65;16.48;;;;;;;12.36;100.00;100593.75;5025800;28;20042;-84
2021/05/12 02:25:02;;;;;;;28.20;16.50;;;;;;;12.34;100.00;100587.66;5026572;28;20034;-82
2021/05/12 02:27:27;;;;;;;32.55;16.90;;;;;;;12.35;100.00;100583.09;5020573;28;20037;-83
2021/05/12 02:29:53;;;;;;;32.50;16.88;;;;;;;12.32;100.00;100583.34;5023685;28;20120;-81
2021/05/12 02:32:19;;;;;;;28.15;16.60;;;;;;;12.30;100.00;100579.88;5009374;28;20460;-81
2021/05/12 02:34:44;;;;;;;38.05;16.60;;;;;;;12.29;100.00;100580.84;5033103;28;20055;-83
2021/05/12 02:37:10;;;;;;;27.92;16.08;;;;;;;12.27;100.00;100577.44;5029260;28;20037;-82
2021/05/12 02:39:35;;;;;;;25.17;15.23;;;;;;;12.33;100.00;100579.69;5012967;28;20022;-82
2021/05/12 02:42:00;;;;;;;30.40;16.73;;;;;;;12.26;100.00;100578.41;5011923;28;20124;-83
2021/05/12 02:44:26;;;;;;;23.50;14.98;;;;;;;12.29;100.00;100578.16;5030046;28;20057;-83
2021/05/12 02:46:51;;;;;;;31.80;15.77;;;;;;;12.26;100.00;100578.41;5029576;28;20033;-82
2021/05/12 02:49:17;;;;;;;30.48;15.10;;;;;;;12.24;100.00;100577.66;5020764;28;20060;-83
2021/05/12 02:51:43;;;;;;;28.58;15.27;;;;;;;12.36;100.00;100579.44;5025097;28;20029;-83
2021/05/12 02:54:08;;;;;;;29.65;15.45;;;;;;;12.31;100.00;100578.91;5030451;28;20593;-83
2021/05/12 02:56:34;;;;;;;24.73;14.40;;;;;;;12.29;100.00;100575.47;5011590;28;20037;-82
2021/05/12 02:58:59;;;;;;;25.02;15.07;;;;;;;12.22;100.00;100585.00;5020698;28;20181;-83
2021/05/12 03:01:25;;;;;;;30.60;15.18;;;;;;;12.24;100.00;100583.03;5028296;28;20035;-83
2021/05/12 03:03:50;;;;;;;30.48;14.07;;;;;;;12.20;100.00;100582.41;5029596;28;20406;-81
2021/05/12 03:06:16;;;;;;;26.45;14.98;;;;;;;12.22;100.00;100591.19;5030528;28;20477;-84
2021/05/12 03:08:41;;;;;;;31.77;14.57;;;;;;;12.20;100.00;100589.63;5027877;28;20033;-81
2021/05/12 03:11:07;;;;;;;25.70;14.23;;;;;;;12.14;100.00;100585.53;5030883;28;20036;-82
2021/05/12 03:13:33;;;;;;;26.90;14.52;;;;;;;12.18;100.00;100583.47;5012568;28;20033;-83
2021/05/12 03:15:59;;;;;;;30.95;13.63;;;;;;;12.14;100.00;100583.72;5024346;28;20038;-82
2021/05/12 03:18:26;;;;;;;29.88;14.23;;;;;;;12.13;100.00;100584.69;5025730;28;20029;-83
2021/05/12 03:20:52;;;;;;;28.48;13.38;;;;;;;12.11;100.00;100580.38;5027749;28;20106;-83
2021/05/12 03:23:17;;;;;;;24.80;13.90;;;;;;;12.10;100.00;100579.50;5011579;28;20028;-82
2021/05/12 03:25:43;;;;;;;29.35;15.25;;;;;;;12.09;100.00;100582.34;5022847;28;20041;-81
2021/05/12 03:28:08;;;;;;;26.00;14.65;;;;;;;12.06;100.00;100583.41;5030185;28;20064;-82
2021/05/12 03:30:37;;;;;;;28.60;15.10;;;;;;;12.12;100.00;100572.19;5027001;28;20076;-82
2021/05/12 03:33:04;;;;;;;31.65;15.10;;;;;;;12.13;100.00;100579.31;5028765;28;20087;-82
2021/05/12 03:35:30;;;;;;;25.60;14.38;;;;;;;12.10;100.00;100579.50;5016571;28;20059;-82
2021/05/12 03:37:56;;;;;;;33.67;16.40;;;;;;;12.12;100.00;100588.34;5010063;28;20088;-82
2021/05/12 03:40:23;;;;;;;30.50;16.13;;;;;;;12.07;100.00;100585.13;5027620;28;20686;-81
2021/05/12 03:42:49;;;;;;;30.63;16.23;;;;;;;12.06;100.00;100593.31;5025303;28;20033;-82
2021/05/12 03:45:14;;;;;;;33.60;16.13;;;;;;;12.04;100.00;100590.72;5025837;28;20033;-82
2021/05/12 03:47:40;;;;;;;26.95;15.32;;;;;;;12.01;100.00;100601.72;5038573;28;20076;-82
2021/05/12 03:50:07;;;;;;;29.95;17.30;;;;;;;12.06;100.00;100596.84;5013147;28;20030;-83
2021/05/12 03:52:32;;;;;;;29.02;15.35;;;;;;;12.03;100.00;100599.78;5020058;28;20033;-81
2021/05/12 03:54:58;;;;;;;27.23;15.15;;;;;;;12.03;100.00;100605.16;5011892;28;20481;-83
2021/05/12 03:57:23;;;;;;;28.95;15.65;;;;;;;12.03;100.00;100599.78;5026242;28;20037;-82
2021/05/12 03:59:49;;;;;;;29.70;14.32;;;;;;;12.03;100.00;100605.16;5030115;28;20043;-82
2021/05/12 04:02:14;;;;;;;29.17;15.57;;;;;;;12.06;100.00;100602.25;5010147;28;20116;-84
2021/05/12 04:04:40;;;;;;;26.15;14.52;;;;;;;12.06;100.00;100602.25;5026805;28;20033;-82
2021/05/12 04:07:05;;;;;;;26.75;15.27;;;;;;;12.06;100.00;100612.13;5027550;28;20037;-82
2021/05/12 04:09:31;;;;;;;29.08;16.30;;;;;;;12.06;100.00;100604.06;5027543;28;20045;-81
2021/05/12 04:11:57;;;;;;;33.25;16.92;;;;;;;12.12;100.00;100603.63;5027447;28;20045;-82
2021/05/12 04:14:22;;;;;;;33.15;16.48;;;;;;;12.06;100.00;100596.84;5012750;28;20497;-83
2021/05/12 04:16:49;;;;;;;31.38;17.08;;;;;;;12.05;100.00;100607.72;5029137;28;20121;-82
2021/05/12 04:19:15;;;;;;;31.40;16.75;;;;;;;12.05;100.00;100602.34;5026614;28;20184;-82
2021/05/12 04:21:40;;;;;;;32.63;16.83;;;;;;;12.04;100.00;100598.78;5028163;28;20549;-82
2021/05/12 04:24:06;;;;;;;28.30;16.75;;;;;;;12.06;100.00;100606.75;5012061;28;20048;-83
2021/05/12 04:26:31;;;;;;;29.23;17.52;;;;;;;12.06;100.00;100599.56;5009476;28;20168;-81
2021/05/12 04:28:57;;;;;;;27.52;16.45;;;;;;;12.08;100.00;100603.00;5027157;28;20037;-82
2021/05/12 04:31:23;;;;;;;32.05;18.10;;;;;;;12.08;100.00;100608.38;5026207;28;20057;-82
2021/05/12 04:33:48;;;;;;;31.45;16.30;;;;;;;12.08;100.00;100607.50;5024109;28;20663;-81
2021/05/12 04:36:14;;;;;;;34.88;17.90;;;;;;;12.09;100.00;100611.94;5020971;28;20041;-82
2021/05/12 04:38:39;;;;;;;28.52;16.10;;;;;;;12.08;100.00;100619.13;5023055;28;20041;-81
2021/05/12 04:41:05;;;;;;;30.77;16.73;;;;;;;12.09;100.00;100607.41;5021222;28;20028;-83
2021/05/12 04:43:30;;;;;;;35.22;18.17;;;;;;;12.20;100.00;100611.16;5016269;28;20034;-82
2021/05/12 04:45:55;;;;;;;37.75;18.90;;;;;;;12.13;100.00;100616.97;5012601;28;20024;-82
2021/05/12 04:48:21;;;;;;;32.65;18.15;;;;;;;12.13;100.00;100616.97;5024204;28;20036;-84
2021/05/12 04:50:46;;;;;;;33.50;19.20;;;;;;;12.11;100.00;100621.59;5018815;28;20125;-83
2021/05/12 04:53:12;;;;;;;36.00;17.95;;;;;;;12.12;100.00;100612.56;5015012;28;20073;-82
2021/05/12 04:55:37;;;;;;;29.20;16.55;;;;;;;12.11;100.00;100608.13;5021335;28;20029;-82
2021/05/12 04:58:03;;;;;;;33.83;18.58;;;;;;;12.14;100.00;100607.94;5018764;28;20064;-82
2021/05/12 05:00:29;;;;;;;38.00;18.40;;;;;;;12.13;100.00;100610.72;5024134;28;20045;-83
2021/05/12 05:02:55;;;;;;;33.40;16.15;;;;;;;12.14;100.00;100613.31;5021532;28;20520;-82
2021/05/12 05:05:24;;;;;;;30.02;16.10;;;;;;;12.16;100.00;100610.50;5020226;28;20036;-82
2021/05/12 05:07:50;;;;;;;26.83;15.95;;;;;;;12.22;100.00;100619.97;5005198;28;20032;-82
2021/05/12 05:10:16;;;;;;;30.95;15.88;;;;;;;12.30;100.00;100604.09;5026877;28;20550;-82
2021/05/12 05:12:41;;;;;;;31.88;16.88;;;;;;;12.28;100.00;100611.47;5025409;28;20145;-82
2021/05/12 05:15:08;;;;;;;30.15;15.15;;;;;;;12.35;100.00;100610.88;5020849;28;20139;-81
2021/05/12 05:17:33;;;;;;;27.85;14.93;;;;;;;12.33;100.00;100610.16;5008979;28;20076;-83
2021/05/12 05:20:00;;;;;;;30.60;16.50;;;;;;;12.34;100.00;100608.31;5018961;28;20064;-83
2021/05/12 05:22:28;;;;;;;28.55;15.35;;;;;;;12.37;100.00;100613.47;5025970;28;20128;-82
2021/05/12 05:24:55;;;;;;;27.80;15.85;;;;;;;12.39;100.00;100612.38;5023841;28;20041;-82
2021/05/12 05:27:21;;;;;;;31.92;16.13;;;;;;;12.46;100.00;100612.78;5007855;28;20037;-82
2021/05/12 05:29:46;;;;;;;28.65;15.95;;;;;;;12.52;100.00;100612.34;5028694;28;20043;-81
2021/05/12 05:32:30;;;;;;;33.08;15.82;;;;;;;12.57;100.00;100610.16;5025840;28;20108;-82
2021/05/12 05:35:14;;;;;;;31.77;13.65;;;;;;;12.74;100.00;100609.75;5030180;28;20413;-81
2021/05/12 05:37:58;;;;;;;26.08;14.75;;;;;;;12.77;100.00;100617.63;5022193;28;20072;-82
2021/05/12 05:40:42;;;;;;;26.20;14.20;;;;;;;12.74;100.00;100617.84;5019961;28;20102;-82
2021/05/12 05:43:37;;;;;;;25.02;14.98;;;;;;;12.81;100.00;100621.78;4987384;28;20042;-82
2021/05/12 05:46:21;;;;;;;27.08;13.30;;;;;;;12.94;100.00;100619.91;5024126;28;20047;-83
2021/05/12 05:49:06;;;;;;;26.33;13.32;;;;;;;13.21;100.00;100624.16;5025423;28;20051;-82
2021/05/12 05:51:49;;;;;;;25.27;12.63;;;;;;;13.19;100.00;100632.41;5016947;28;20084;-83
2021/05/12 05:54:33;;;;;;;20.70;11.95;;;;;;;13.24;100.00;100635.59;5018124;28;20088;-82
2021/05/12 05:57:17;;;;;;;27.35;12.10;;;;;;;13.43;100.00;100636.88;5019614;28;20052;-82
2021/05/12 06:00:02;;;;;;;19.38;12.18;;;;;;;13.87;100.00;100634.25;5023522;28;20122;-81
2021/05/12 06:02:39;;;;;;;22.00;11.10;;;;;;;13.83;100.00;100640.00;5024907;28;20044;-83
2021/05/12 06:05:24;;;;;;;20.88;10.32;;;;;;;14.02;98.66;100634.84;5023833;28;20060;-81
2021/05/12 06:08:07;;;;;;;16.30;9.45;;;;;;;13.89;98.75;100636.81;5028243;28;20103;-82
2021/05/12 06:10:51;;;;;;;18.75;9.70;;;;;;;13.91;98.78;100629.47;5022783;28;20071;-81
2021/05/12 06:13:36;;;;;;;19.95;8.75;;;;;;;14.12;97.47;100635.84;5021408;28;20098;-82
2021/05/12 06:16:20;;;;;;;20.92;9.65;;;;;;;14.28;95.63;100640.84;5020392;28;20133;-83
2021/05/12 06:19:05;;;;;;;18.05;8.70;;;;;;;14.61;93.62;100637.28;5022788;28;20284;-82
2021/05/12 06:21:48;;;;;;;17.65;8.57;;;;;;;15.06;91.58;100649.66;5023117;28;20110;-83
2021/05/12 06:24:32;;;;;;;14.43;7.72;;;;;;;15.53;88.85;100652.91;5024121;28;20187;-81
2021/05/12 06:27:17;;;;;;;14.77;8.27;;;;;;;15.86;85.72;100654.56;5024289;28;20118;-81
2021/05/12 06:30:01;;;;;;;17.85;8.50;;;;;;;15.98;83.78;100648.94;5024947;28;20076;-82
2021/05/12 06:32:56;;;;;;;16.17;8.25;;;;;;;16.10;84.27;100653.28;5006613;28;20117;-82
2021/05/12 06:35:40;;;;;;;19.20;7.85;;;;;;;16.24;84.18;100664.69;5024216;28;20057;-82
2021/05/12 06:38:24;;;;;;;13.13;7.13;;;;;;;16.41;81.24;100658.66;5026076;28;20057;-82
2021/05/12 06:40:55;;;;;;;18.02;7.53;;;;;;;16.35;80.17;100665.50;5021871;28;20307;-82
2021/05/12 06:43:21;;;;;;;19.05;7.45;;;;;;;16.29;80.40;100665.19;5003818;28;20498;-83
2021/05/12 06:45:48;;;;;;;15.80;7.45;;;;;;;16.54;79.65;100659.28;5009462;28;20035;-82
2021/05/12 06:48:14;;;;;;;20.50;9.30;;;;;;;16.78;79.27;100654.38;5025799;28;20037;-82
2021/05/12 06:50:39;;;;;;;16.15;7.70;;;;;;;17.05;77.34;100656.38;4999838;28;20083;-82
2021/05/12 06:53:05;;;;;;;11.13;6.95;;;;;;;17.22;78.03;100658.38;5027500;28;20094;-83
2021/05/12 06:55:30;;;;;;;16.00;7.40;;;;;;;17.30;76.00;100658.53;5014448;28;20033;-82
2021/05/12 06:57:55;;;;;;;12.73;7.25;;;;;;;16.89;75.42;100662.38;5025414;28;20044;-81
2021/05/12 07:00:22;;;;;;;15.00;7.70;;;;;;;17.21;75.46;100672.13;5016908;28;20112;-82
2021/05/12 07:02:47;;;;;;;16.83;6.70;;;;;;;17.85;73.81;100671.50;5029953;28;20445;-82
2021/05/12 07:05:19;;;;;;;13.90;6.78;;;;;;;18.16;72.83;100675.69;5023185;28;20128;-82
2021/05/12 07:07:45;;;;;;;12.90;7.57;;;;;;;18.28;71.63;100670.94;5022873;28;20075;-81
2021/05/12 07:10:12;;;;;;;16.65;7.82;;;;;;;18.63;71.83;100672.97;5012592;28;20384;-83
2021/05/12 07:12:38;;;;;;;13.80;7.15;;;;;;;18.53;69.48;100673.81;5021987;28;20095;-82
2021/05/12 07:15:05;;;;;;;18.67;8.05;;;;;;;18.69;69.67;100667.78;5020548;28;20030;-82
2021/05/12 07:17:31;;;;;;;15.80;7.88;;;;;;;18.83;69.80;100675.41;5022831;28;20510;-82
2021/05/12 07:19:57;;;;;;;11.60;7.07;;;;;;;18.55;68.74;100674.56;5007243;28;20045;-81
2021/05/12 07:22:23;;;;;;;15.57;8.98;;;;;;;18.74;70.13;100670.03;5007641;28;20512;-83
2021/05/12 07:24:49;;;;;;;14.43;8.05;;;;;;;18.44;70.80;100680.19;5004042;28;20091;-83
2021/05/12 07:27:18;;;;;;;14.88;8.52;;;;;;;18.02;72.09;100678.91;5006464;28;20037;-84
2021/05/12 07:29:43;;;;;;;15.70;8.52;;;;;;;17.69;71.80;100683.84;5001061;28;20025;-82
2021/05/12 07:32:09;;;;;;;13.70;9.38;;;;;;;18.07;70.85;100687.47;5001548;28;20042;-84
2021/05/12 07:34:35;;;;;;;16.83;9.05;;;;;;;18.36;71.22;100684.63;5009139;28;20029;-82
2021/05/12 07:37:00;;;;;;;17.05;8.60;;;;;;;18.27;69.23;100691.81;5029398;28;20039;-80
2021/05/12 07:39:29;;;;;;;13.20;8.15;;;;;;;18.03;70.33;100686.03;5027645;28;20033;-84
2021/05/12 07:41:57;;;;;;;14.88;8.25;;;;;;;18.09;70.72;100690.88;5023342;28;20536;-84
2021/05/12 07:44:23;;;;;;;17.85;7.78;;;;;;;17.92;73.48;100689.78;5022494;28;20103;-83
2021/05/12 07:46:50;;;;;;;13.88;7.30;;;;;;;17.57;73.36;100695.81;5032597;28;20034;-83
2021/05/12 07:49:15;;;;;;;11.60;7.22;;;;;;;17.69;72.37;100686.53;5019103;28;20038;-84
2021/05/12 07:51:41;;;;;;;17.30;8.55;;;;;;;18.57;70.87;100691.59;5019365;28;20083;-84
2021/05/12 07:54:06;;;;;;;14.40;7.18;;;;;;;19.27;69.82;100698.16;5020292;28;20065;-83
2021/05/12 07:56:31;;;;;;;12.35;6.25;;;;;;;18.86;66.96;100688.72;5015681;28;20033;-82
2021/05/12 07:58:57;;;;;;;13.40;6.55;;;;;;;18.93;66.76;100689.81;5008211;28;20041;-83
2021/05/12 08:01:28;;;;;;;15.52;7.20;;;;;;;19.46;66.48;100693.59;5012788;28;20029;-82
2021/05/12 08:03:53;;;;;;;12.40;6.00;;;;;;;20.25;62.07;100701.66;5023206;28;20052;-83
2021/05/12 08:06:19;;;;;;;10.90;5.85;;;;;;;20.16;60.01;100698.91;5037600;28;20553;-83
2021/05/12 08:08:44;;;;;;;11.30;6.18;;;;;;;19.52;64.79;100695.69;5021591;28;20042;-82
2021/05/12 08:11:10;;;;;;;12.30;5.45;;;;;;;19.42;64.23;100692.16;5022695;28;20041;-84
2021/05/12 08:13:35;;;;;;;13.32;5.43;;;;;;;19.30;64.14;100694.28;5022224;28;20469;-82
2021/05/12 08:16:01;;;;;;;14.02;5.28;;;;;;;19.71;64.16;100682.75;5033559;28;20043;-83
2021/05/12 08:18:26;;;;;;;12.48;5.43;;;;;;;20.41;61.18;100691.78;5023078;28;20059;-83
2021/05/12 08:20:53;;;;;;;15.52;5.82;;;;;;;20.65;56.73;100699.19;5025157;28;20037;-83
2021/05/12 08:23:19;;;;;;;10.95;5.85;;;;;;;21.06;58.14;100693.88;5021702;28;20029;-84
2021/05/12 08:25:45;;;;;;;12.88;5.72;;;;;;;21.33;56.44;100688.16;5027021;28;20029;-83
2021/05/12 08:28:12;;;;;;;12.63;5.47;;;;;;;21.59;57.53;100688.88;5002635;28;20072;-82
2021/05/12 08:30:40;;;;;;;10.98;5.60;;;;;;;21.83;54.41;100689.88;5007517;28;20053;-82
2021/05/12 08:33:06;;;;;;;11.20;6.00;;;;;;;21.99;55.02;100690.75;5008263;28;20632;-83
2021/05/12 08:35:31;;;;;;;12.50;5.70;;;;;;;22.47;52.87;100692.50;5024332;28;20041;-83
2021/05/12 08:37:57;;;;;;;14.48;5.78;;;;;;;22.83;53.65;100686.59;5007180;28;20084;-83
2021/05/12 08:40:22;;;;;;;11.18;5.00;;;;;;;23.00;54.55;100682.75;5023151;28;20478;-81
2021/05/12 08:42:50;;;;;;;10.13;5.63;;;;;;;22.87;47.13;100685.19;5004542;28;20387;-83
2021/05/12 08:45:18;;;;;;;16.63;5.25;;;;;;;22.09;49.36;100682.38;5003658;28;20124;-84
2021/05/12 08:47:45;;;;;;;10.00;5.35;;;;;;;22.20;52.61;100682.00;5010118;28;20113;-83
2021/05/12 08:50:11;;;;;;;10.95;5.28;;;;;;;21.70;53.72;100680.34;5022537;28;20037;-81
2021/05/12 08:52:41;;;;;;;12.60;6.05;;;;;;;21.00;57.94;100679.88;5007527;28;20037;-82
2021/05/12 08:55:07;;;;;;;13.27;5.32;;;;;;;20.55;57.95;100682.13;5023070;28;20123;-84
2021/05/12 08:57:33;;;;;;;10.52;5.28;;;;;;;20.27;60.92;100680.56;5014594;28;20138;-83
2021/05/12 08:59:58;;;;;;;13.25;5.10;;;;;;;21.02;58.72;100676.13;4999213;28;20140;-84
2021/05/12 09:02:24;;;;;;;11.10;5.28;;;;;;;21.28;56.98;100671.44;5018020;28;20079;-84
2021/05/12 09:04:49;;;;;;;9.90;5.82;;;;;;;21.45;56.42;100675.88;5018191;28;20492;-84
2021/05/12 09:07:15;;;;;;;14.60;6.00;;;;;;;21.02;56.73;100676.13;5022304;28;20485;-84
2021/05/12 09:09:41;;;;;;;11.80;5.38;;;;;;;20.42;56.27;100668.09;5021442;28;20038;-83
2021/05/12 09:12:11;;;;;;;21.25;6.22;;;;;;;20.02;58.12;100668.66;5019954;28;20041;-83
2021/05/12 09:14:38;;;;;;;15.77;6.15;;;;;;;20.15;61.35;100667.22;5008291;28;20502;-83
2021/05/12 09:17:04;;;;;;;12.27;6.47;;;;;;;19.97;59.86;100665.56;5005551;28;20037;-82
2021/05/12 09:19:29;;;;;;;11.88;6.68;;;;;;;19.66;60.92;100663.31;5006179;28;20052;-83
2021/05/12 09:22:02;;;;;;;9.23;5.68;;;;;;;19.73;60.84;100666.25;5022845;28;20063;-83
2021/05/12 09:24:31;;;;;;;9.40;5.40;;;;;;;19.86;62.21;100663.97;5010914;28;20044;-82
2021/05/12 09:27:00;;;;;;;10.93;5.55;;;;;;;19.78;59.75;100666.63;5008378;28;22421;-83
2021/05/12 09:29:29;;;;;;;14.88;5.50;;;;;;;19.69;61.36;100662.97;5001445;28;20099;-83
2021/05/12 09:32:04;;;;;;;11.25;5.63;;;;;;;20.18;61.11;100664.16;5025821;28;20041;-83
2021/05/12 09:34:47;;;;;;;8.77;4.50;;;;;;;20.86;55.39;100666.03;5026360;28;20237;-83
2021/05/12 09:37:45;;;;;;;10.57;4.20;;;;;;;21.38;54.83;100659.31;5018076;28;20111;-81
2021/05/12 09:40:13;;;;;;;9.98;4.57;;;;;;;21.50;52.40;100662.56;5011142;28;20083;-83
2021/05/12 09:42:40;;;;;;;11.88;5.10;;;;;;;21.66;55.03;100657.09;5020162;28;20034;-83
2021/05/12 09:45:16;;;;;;;8.82;4.63;;;;;;;21.89;51.42;100665.47;5017442;28;20136;-83
2021/05/12 09:47:43;;;;;;;12.10;5.63;;;;;;;22.11;51.87;100661.16;5005400;28;20456;-83
2021/05/12 09:50:21;;;;;;;9.50;4.50;;;;;;;22.04;51.10;100663.75;5006525;28;20034;-84
2021/05/12 09:52:50;;;;;;;9.80;4.53;;;;;;;21.48;53.49;100659.16;5004121;28;20048;-84
2021/05/12 09:55:16;;;;;;;9.85;4.00;;;;;;;20.99;53.97;100653.59;5000451;28;20486;-83
2021/05/12 09:58:02;;;;;;;6.82;3.95;;;;;;;20.70;56.23;100666.81;5003780;28;20032;-83
2021/05/12 10:00:33;;;;;;;6.75;3.72;;;;;;;20.68;54.71;100659.81;5005479;28;20148;-83
2021/05/12 10:03:01;;;;;;;5.65;3.90;;;;;;;20.66;56.31;100660.00;5018249;28;20056;-83
2021/05/12 10:05:27;;;;;;;12.40;4.10;;;;;;;21.04;55.03;100657.72;5019721;28;20042;-82
2021/05/12 10:07:57;;;;;;;9.40;4.75;;;;;;;20.58;53.92;100665.41;5004433;28;20064;-84
2021/05/12 10:10:36;;;;;;;9.98;3.85;;;;;;;20.69;55.82;100662.38;5019772;28;20442;-82
2021/05/12 10:13:03;;;;;;;9.57;4.10;;;;;;;20.67;54.83;100661.72;4996950;28;20033;-83
2021/05/12 10:15:28;;;;;;;9.65;3.90;;;;;;;20.48;55.36;100654.66;5022057;28;20108;-82
2021/05/12 10:17:54;;;;;;;7.75;3.53;;;;;;;20.37;54.34;100657.66;5018384;28;20463;-83
2021/05/12 10:20:20;;;;;;;10.02;3.80;;;;;;;20.72;52.45;100653.03;5013110;28;20438;-82
2021/05/12 10:22:46;;;;;;;10.48;3.67;;;;;;;21.26;54.06;100648.91;5022382;28;20204;-83
2021/05/12 10:25:12;;;;;;;7.22;3.88;;;;;;;21.84;51.99;100656.06;5016013;28;20497;-83
2021/05/12 10:27:38;;;;;;;7.45;3.60;;;;;;;22.24;48.05;100649.69;5019141;28;20414;-84
2021/05/12 10:30:05;;;;;;;7.57;4.00;;;;;;;22.25;48.55;100646.78;5018478;28;20029;-85
2021/05/12 10:32:35;;;;;;;9.38;3.95;;;;;;;21.99;49.17;100641.56;5018801;28;20390;-84
2021/05/12 10:35:07;;;;;;;7.20;4.03;;;;;;;21.30;49.79;100640.19;5018819;28;20044;-84
2021/05/12 10:37:36;;;;;;;7.93;4.65;;;;;;;21.00;49.66;100638.94;5022819;28;20061;-83
2021/05/12 10:40:07;;;;;;;5.68;3.13;;;;;;;21.09;47.49;100639.81;5023223;28;20445;-85
2021/05/12 10:43:11;;;;;;;6.13;3.38;;;;;;;21.53;46.37;100639.53;5020825;28;20044;-83
2021/05/12 10:45:49;;;;;;;8.48;3.55;;;;;;;22.03;48.63;100631.13;5006138;28;20069;-84
2021/05/12 10:48:29;;;;;;;8.90;3.25;;;;;;;21.82;47.44;100634.38;5022056;28;20045;-85
2021/05/12 10:50:56;;;;;;;7.97;3.70;;;;;;;21.48;51.99;100634.56;5012472;28;20092;-83
2021/05/12 10:53:23;;;;;;;12.20;4.25;;;;;;;21.44;50.13;100627.75;5026215;28;20513;-84
2021/05/12 10:55:55;;;;;;;12.63;4.00;;;;;;;20.93;47.85;100620.66;5021351;28;20033;-85
2021/05/12 10:58:21;;;;;;;7.18;3.90;;;;;;;20.90;49.94;100630.06;5007211;28;20044;-84
2021/05/12 11:01:14;;;;;;;7.55;2.50;;;;;;;20.92;48.74;100633.47;5011087;28;20030;-84
2021/05/12 11:03:49;;;;;;;9.75;3.55;;;;;;;20.95;47.99;100635.88;5017032;28;20136;-84
2021/05/12 11:06:15;;;;;;;7.93;3.55;;;;;;;20.83;51.12;100630.88;5016632;28;20136;-83
2021/05/12 11:09:05;;;;;;;8.25;3.97;;;;;;;20.69;51.77;100626.94;5023957;28;20485;-84
2021/05/12 11:11:31;;;;;;;9.40;3.97;;;;;;;20.72;48.75;100628.47;5034797;28;20625;-85
2021/05/12 11:14:20;;;;;;;7.28;3.70;;;;;;;20.46;49.74;100628.56;5014111;28;20025;-84
2021/05/12 11:17:04;;;;;;;18.02;9.68;;;;;;;20.68;50.17;100621.63;5007701;28;20494;-85